sensor_id;sensor_type;location;lat;lon;timestamp;temperature;humidity
76168;DHT22;64927;48.214;16.378;2023-03-20T00:01:57;11.50;51.40
76168;DHT22;64927;48.214;16.378;2023-03-20T00:04:23;11.40;51.40
76168;DHT22;64927;48.214;16.378;2023-03-20T00:06:50;11.30;51.40
76168;DHT22;64927;48.214;16.378;2023-03-20T00:09:18;11.40;51.50
76168;DHT22;64927;48.214;16.378;2023-03-20T00:11:51;11.40;51.40
76168;DHT22;64927;48.214;16.378;2023-03-20T00:14:19;11.30;51.70
76168;DHT22;64927;48.214;16.378;2023-03-20T00:16:50;11.20;51.80
76168;DHT22;64927;48.214;16.378;2023-03-20T00:21:48;11.20;51.90
76168;DHT22;64927;48.214;16.378;2023-03-20T00:24:18;11.10;52.00
76168;DHT22;64927;48.214;16.378;2023-03-20T00:26:45;11.10;52.00
76168;DHT22;64927;48.214;16.378;2023-03-20T00:29:23;11.10;52.00
76168;DHT22;64927;48.214;16.378;2023-03-20T00:31:49;11.10;52.00
76168;DHT22;64927;48.214;16.378;2023-03-20T00:34:16;11.00;52.30
76168;DHT22;64927;48.214;16.378;2023-03-20T00:36:43;11.10;52.50
76168;DHT22;64927;48.214;16.378;2023-03-20T00:39:11;11.00;52.60
76168;DHT22;64927;48.214;16.378;2023-03-20T00:47:03;11.10;52.60
76168;DHT22;64927;48.214;16.378;2023-03-20T00:49:33;11.10;52.20
76168;DHT22;64927;48.214;16.378;2023-03-20T00:52:02;11.00;52.30
76168;DHT22;64927;48.214;16.378;2023-03-20T00:54:28;11.00;52.80
76168;DHT22;64927;48.214;16.378;2023-03-20T00:57:00;11.00;53.00
76168;DHT22;64927;48.214;16.378;2023-03-20T00:59:30;11.00;53.10
76168;DHT22;64927;48.214;16.378;2023-03-20T01:01:58;10.90;53.60
76168;DHT22;64927;48.214;16.378;2023-03-20T01:04:29;10.80;54.20
76168;DHT22;64927;48.214;16.378;2023-03-20T01:06:55;10.80;54.00
76168;DHT22;64927;48.214;16.378;2023-03-20T01:09:21;10.70;54.50
76168;DHT22;64927;48.214;16.378;2023-03-20T01:11:49;10.60;54.50
76168;DHT22;64927;48.214;16.378;2023-03-20T01:14:15;10.60;54.70
76168;DHT22;64927;48.214;16.378;2023-03-20T01:16:41;10.40;55.50
76168;DHT22;64927;48.214;16.378;2023-03-20T01:19:11;10.30;55.50
76168;DHT22;64927;48.214;16.378;2023-03-20T01:21:37;10.40;55.20
76168;DHT22;64927;48.214;16.378;2023-03-20T01:24:03;10.40;55.30
76168;DHT22;64927;48.214;16.378;2023-03-20T01:26:40;10.40;55.30
76168;DHT22;64927;48.214;16.378;2023-03-20T01:29:21;10.30;55.60
76168;DHT22;64927;48.214;16.378;2023-03-20T01:31:47;10.30;55.50
76168;DHT22;64927;48.214;16.378;2023-03-20T01:34:13;10.30;54.90
76168;DHT22;64927;48.214;16.378;2023-03-20T01:36:54;10.30;55.00
76168;DHT22;64927;48.214;16.378;2023-03-20T01:39:31;10.40;55.00
76168;DHT22;64927;48.214;16.378;2023-03-20T01:41:58;10.30;54.80
76168;DHT22;64927;48.214;16.378;2023-03-20T01:44:28;10.40;55.00
76168;DHT22;64927;48.214;16.378;2023-03-20T01:46:54;10.30;54.70
76168;DHT22;64927;48.214;16.378;2023-03-20T01:51:47;10.30;54.90
76168;DHT22;64927;48.214;16.378;2023-03-20T01:54:14;10.30;55.10
76168;DHT22;64927;48.214;16.378;2023-03-20T01:59:44;10.20;55.50
76168;DHT22;64927;48.214;16.378;2023-03-20T02:02:14;10.30;55.20
76168;DHT22;64927;48.214;16.378;2023-03-20T02:04:48;10.30;54.90
76168;DHT22;64927;48.214;16.378;2023-03-20T02:07:17;10.30;55.00
76168;DHT22;64927;48.214;16.378;2023-03-20T02:09:46;10.40;55.00
76168;DHT22;64927;48.214;16.378;2023-03-20T02:12:12;10.40;54.90
76168;DHT22;64927;48.214;16.378;2023-03-20T02:14:38;10.40;55.00
76168;DHT22;64927;48.214;16.378;2023-03-20T02:17:07;10.50;54.80
76168;DHT22;64927;48.214;16.378;2023-03-20T02:22:20;10.50;54.70
76168;DHT22;64927;48.214;16.378;2023-03-20T02:25:05;10.50;54.50
76168;DHT22;64927;48.214;16.378;2023-03-20T02:52:14;10.10;56.40
76168;DHT22;64927;48.214;16.378;2023-03-20T02:54:56;10.20;55.90
76168;DHT22;64927;48.214;16.378;2023-03-20T03:00:37;10.30;55.40
76168;DHT22;64927;48.214;16.378;2023-03-20T03:08:13;10.30;55.90
76168;DHT22;64927;48.214;16.378;2023-03-20T03:10:50;10.20;55.80
76168;DHT22;64927;48.214;16.378;2023-03-20T03:13:23;10.10;56.30
76168;DHT22;64927;48.214;16.378;2023-03-20T03:15:54;10.10;56.10
76168;DHT22;64927;48.214;16.378;2023-03-20T03:18:27;10.10;55.70
76168;DHT22;64927;48.214;16.378;2023-03-20T03:20:58;10.10;56.10
76168;DHT22;64927;48.214;16.378;2023-03-20T03:23:46;10.10;56.00
76168;DHT22;64927;48.214;16.378;2023-03-20T03:26:27;10.10;56.00
76168;DHT22;64927;48.214;16.378;2023-03-20T03:28:58;10.10;55.80
76168;DHT22;64927;48.214;16.378;2023-03-20T03:31:26;10.10;56.00
76168;DHT22;64927;48.214;16.378;2023-03-20T03:33:56;10.00;56.50
76168;DHT22;64927;48.214;16.378;2023-03-20T03:39:19;9.90;56.70
76168;DHT22;64927;48.214;16.378;2023-03-20T03:47:22;10.00;56.60
76168;DHT22;64927;48.214;16.378;2023-03-20T03:49:52;10.00;56.60
76168;DHT22;64927;48.214;16.378;2023-03-20T03:52:21;10.00;56.50
76168;DHT22;64927;48.214;16.378;2023-03-20T03:54:58;10.00;56.70
76168;DHT22;64927;48.214;16.378;2023-03-20T03:57:41;9.90;56.60
76168;DHT22;64927;48.214;16.378;2023-03-20T04:00:10;9.90;56.60
76168;DHT22;64927;48.214;16.378;2023-03-20T04:02:38;10.00;56.70
76168;DHT22;64927;48.214;16.378;2023-03-20T04:05:07;10.10;56.60
76168;DHT22;64927;48.214;16.378;2023-03-20T04:07:36;10.10;56.70
76168;DHT22;64927;48.214;16.378;2023-03-20T04:10:02;10.00;57.30
76168;DHT22;64927;48.214;16.378;2023-03-20T04:12:36;9.90;57.50
76168;DHT22;64927;48.214;16.378;2023-03-20T04:15:03;10.00;57.20
76168;DHT22;64927;48.214;16.378;2023-03-20T04:17:29;10.00;56.90
76168;DHT22;64927;48.214;16.378;2023-03-20T04:19:56;10.00;56.80
76168;DHT22;64927;48.214;16.378;2023-03-20T04:22:21;10.00;56.70
76168;DHT22;64927;48.214;16.378;2023-03-20T04:24:47;10.00;56.70
76168;DHT22;64927;48.214;16.378;2023-03-20T04:27:13;10.00;56.50
76168;DHT22;64927;48.214;16.378;2023-03-20T04:29:39;10.00;56.40
76168;DHT22;64927;48.214;16.378;2023-03-20T04:32:05;10.00;56.60
76168;DHT22;64927;48.214;16.378;2023-03-20T04:34:31;10.00;56.60
76168;DHT22;64927;48.214;16.378;2023-03-20T04:36:57;10.00;56.50
76168;DHT22;64927;48.214;16.378;2023-03-20T04:39:25;10.00;56.60
76168;DHT22;64927;48.214;16.378;2023-03-20T04:41:53;10.00;57.00
76168;DHT22;64927;48.214;16.378;2023-03-20T04:44:19;10.00;57.30
76168;DHT22;64927;48.214;16.378;2023-03-20T04:46:45;9.90;57.50
76168;DHT22;64927;48.214;16.378;2023-03-20T04:49:11;9.80;57.80
76168;DHT22;64927;48.214;16.378;2023-03-20T04:51:38;9.80;58.30
76168;DHT22;64927;48.214;16.378;2023-03-20T04:54:07;9.80;58.70
76168;DHT22;64927;48.214;16.378;2023-03-20T04:56:33;9.70;60.10
76168;DHT22;64927;48.214;16.378;2023-03-20T04:58:58;9.80;58.90
76168;DHT22;64927;48.214;16.378;2023-03-20T05:01:26;9.90;58.60
76168;DHT22;64927;48.214;16.378;2023-03-20T05:03:52;9.70;59.50
76168;DHT22;64927;48.214;16.378;2023-03-20T05:06:22;9.80;59.30
76168;DHT22;64927;48.214;16.378;2023-03-20T05:08:47;9.80;59.50
76168;DHT22;64927;48.214;16.378;2023-03-20T05:11:13;9.80;59.30
76168;DHT22;64927;48.214;16.378;2023-03-20T05:13:39;9.80;59.40
76168;DHT22;64927;48.214;16.378;2023-03-20T05:16:04;9.80;59.30
76168;DHT22;64927;48.214;16.378;2023-03-20T05:18:30;9.90;59.00
76168;DHT22;64927;48.214;16.378;2023-03-20T05:20:56;9.90;59.60
76168;DHT22;64927;48.214;16.378;2023-03-20T05:23:21;10.00;59.30
76168;DHT22;64927;48.214;16.378;2023-03-20T05:25:47;10.00;59.40
76168;DHT22;64927;48.214;16.378;2023-03-20T05:28:15;10.00;59.20
76168;DHT22;64927;48.214;16.378;2023-03-20T05:30:40;10.00;59.40
76168;DHT22;64927;48.214;16.378;2023-03-20T05:33:06;10.00;59.20
76168;DHT22;64927;48.214;16.378;2023-03-20T05:35:32;10.00;59.20
76168;DHT22;64927;48.214;16.378;2023-03-20T05:37:58;10.00;59.00
76168;DHT22;64927;48.214;16.378;2023-03-20T05:40:23;10.10;58.70
76168;DHT22;64927;48.214;16.378;2023-03-20T05:42:50;10.20;58.60
76168;DHT22;64927;48.214;16.378;2023-03-20T05:45:17;10.20;58.70
76168;DHT22;64927;48.214;16.378;2023-03-20T05:47:43;10.30;58.60
76168;DHT22;64927;48.214;16.378;2023-03-20T05:50:10;10.40;58.20
76168;DHT22;64927;48.214;16.378;2023-03-20T05:52:35;10.50;58.00
76168;DHT22;64927;48.214;16.378;2023-03-20T05:55:01;10.50;58.00
76168;DHT22;64927;48.214;16.378;2023-03-20T05:57:27;10.60;58.00
76168;DHT22;64927;48.214;16.378;2023-03-20T05:59:53;10.60;58.00
76168;DHT22;64927;48.214;16.378;2023-03-20T06:02:18;10.80;57.90
76168;DHT22;64927;48.214;16.378;2023-03-20T06:04:44;10.80;57.50
76168;DHT22;64927;48.214;16.378;2023-03-20T06:07:10;10.90;57.30
76168;DHT22;64927;48.214;16.378;2023-03-20T06:09:36;11.00;56.90
76168;DHT22;64927;48.214;16.378;2023-03-20T06:12:02;11.10;56.70
76168;DHT22;64927;48.214;16.378;2023-03-20T06:14:28;11.10;56.70
76168;DHT22;64927;48.214;16.378;2023-03-20T06:16:55;11.20;56.60
76168;DHT22;64927;48.214;16.378;2023-03-20T06:19:22;11.30;56.30
76168;DHT22;64927;48.214;16.378;2023-03-20T06:21:49;11.30;56.20
76168;DHT22;64927;48.214;16.378;2023-03-20T06:24:15;11.40;56.00
76168;DHT22;64927;48.214;16.378;2023-03-20T06:26:41;11.50;55.80
76168;DHT22;64927;48.214;16.378;2023-03-20T06:29:07;11.50;55.70
76168;DHT22;64927;48.214;16.378;2023-03-20T06:31:33;11.60;55.50
76168;DHT22;64927;48.214;16.378;2023-03-20T06:34:01;11.60;55.30
76168;DHT22;64927;48.214;16.378;2023-03-20T06:36:27;11.60;55.70
76168;DHT22;64927;48.214;16.378;2023-03-20T06:38:54;11.70;55.70
76168;DHT22;64927;48.214;16.378;2023-03-20T06:41:20;11.90;55.40
76168;DHT22;64927;48.214;16.378;2023-03-20T06:43:48;12.00;55.10
76168;DHT22;64927;48.214;16.378;2023-03-20T06:46:13;12.10;55.00
76168;DHT22;64927;48.214;16.378;2023-03-20T06:48:40;12.20;54.80
76168;DHT22;64927;48.214;16.378;2023-03-20T06:51:08;12.50;54.60
76168;DHT22;64927;48.214;16.378;2023-03-20T06:53:33;12.80;53.90
76168;DHT22;64927;48.214;16.378;2023-03-20T06:55:59;13.00;53.40
76168;DHT22;64927;48.214;16.378;2023-03-20T06:58:25;13.20;52.90
76168;DHT22;64927;48.214;16.378;2023-03-20T07:00:51;13.40;52.50
76168;DHT22;64927;48.214;16.378;2023-03-20T07:03:19;13.50;51.90
76168;DHT22;64927;48.214;16.378;2023-03-20T07:05:45;13.60;51.60
76168;DHT22;64927;48.214;16.378;2023-03-20T07:08:11;13.70;51.30
76168;DHT22;64927;48.214;16.378;2023-03-20T07:10:36;13.70;51.50
76168;DHT22;64927;48.214;16.378;2023-03-20T07:13:03;13.80;52.60
76168;DHT22;64927;48.214;16.378;2023-03-20T07:15:31;14.20;52.40
76168;DHT22;64927;48.214;16.378;2023-03-20T07:17:57;14.40;51.40
76168;DHT22;64927;48.214;16.378;2023-03-20T07:20:23;14.60;51.80
76168;DHT22;64927;48.214;16.378;2023-03-20T07:22:48;14.90;51.50
76168;DHT22;64927;48.214;16.378;2023-03-20T07:25:14;15.10;51.40
76168;DHT22;64927;48.214;16.378;2023-03-20T07:27:40;15.30;51.20
76168;DHT22;64927;48.214;16.378;2023-03-20T07:30:06;15.60;50.60
76168;DHT22;64927;48.214;16.378;2023-03-20T07:32:35;15.80;50.40
76168;DHT22;64927;48.214;16.378;2023-03-20T07:35:01;16.00;49.80
76168;DHT22;64927;48.214;16.378;2023-03-20T07:37:27;16.10;49.40
76168;DHT22;64927;48.214;16.378;2023-03-20T07:39:53;16.30;49.00
76168;DHT22;64927;48.214;16.378;2023-03-20T07:42:20;16.40;49.00
76168;DHT22;64927;48.214;16.378;2023-03-20T07:44:49;16.60;48.30
76168;DHT22;64927;48.214;16.378;2023-03-20T07:47:14;16.70;48.20
76168;DHT22;64927;48.214;16.378;2023-03-20T07:49:40;16.80;48.10
76168;DHT22;64927;48.214;16.378;2023-03-20T07:52:06;17.00;47.70
76168;DHT22;64927;48.214;16.378;2023-03-20T07:54:32;16.90;47.00
76168;DHT22;64927;48.214;16.378;2023-03-20T07:56:57;17.00;47.70
76168;DHT22;64927;48.214;16.378;2023-03-20T07:59:23;17.00;47.20
76168;DHT22;64927;48.214;16.378;2023-03-20T08:01:51;17.30;47.00
76168;DHT22;64927;48.214;16.378;2023-03-20T08:04:17;17.50;46.30
76168;DHT22;64927;48.214;16.378;2023-03-20T08:06:44;17.80;45.50
76168;DHT22;64927;48.214;16.378;2023-03-20T08:09:10;17.90;45.50
76168;DHT22;64927;48.214;16.378;2023-03-20T08:11:35;18.00;45.00
76168;DHT22;64927;48.214;16.378;2023-03-20T08:14:01;17.90;44.90
76168;DHT22;64927;48.214;16.378;2023-03-20T08:16:29;18.00;45.00
76168;DHT22;64927;48.214;16.378;2023-03-20T08:18:55;18.10;44.40
76168;DHT22;64927;48.214;16.378;2023-03-20T08:21:26;18.10;44.40
76168;DHT22;64927;48.214;16.378;2023-03-20T08:23:52;17.80;44.90
76168;DHT22;64927;48.214;16.378;2023-03-20T08:26:18;17.40;46.00
76168;DHT22;64927;48.214;16.378;2023-03-20T08:28:44;17.50;46.20
76168;DHT22;64927;48.214;16.378;2023-03-20T08:31:10;17.60;45.60
76168;DHT22;64927;48.214;16.378;2023-03-20T08:33:35;17.60;45.60
76168;DHT22;64927;48.214;16.378;2023-03-20T08:36:01;17.50;46.00
76168;DHT22;64927;48.214;16.378;2023-03-20T08:38:27;17.60;45.80
76168;DHT22;64927;48.214;16.378;2023-03-20T08:40:52;17.80;45.40
76168;DHT22;64927;48.214;16.378;2023-03-20T08:43:19;18.00;45.00
76168;DHT22;64927;48.214;16.378;2023-03-20T08:45:47;17.90;45.10
76168;DHT22;64927;48.214;16.378;2023-03-20T08:48:13;18.20;44.70
76168;DHT22;64927;48.214;16.378;2023-03-20T08:50:39;18.70;43.90
76168;DHT22;64927;48.214;16.378;2023-03-20T08:53:07;18.90;42.80
76168;DHT22;64927;48.214;16.378;2023-03-20T08:55:40;18.90;42.60
76168;DHT22;64927;48.214;16.378;2023-03-20T08:58:23;18.90;42.60
76168;DHT22;64927;48.214;16.378;2023-03-20T09:00:49;18.90;42.70
76168;DHT22;64927;48.214;16.378;2023-03-20T09:03:17;18.80;42.80
76168;DHT22;64927;48.214;16.378;2023-03-20T09:05:44;18.50;43.10
76168;DHT22;64927;48.214;16.378;2023-03-20T09:08:14;18.50;43.20
76168;DHT22;64927;48.214;16.378;2023-03-20T09:10:43;18.50;43.20
76168;DHT22;64927;48.214;16.378;2023-03-20T09:13:08;18.70;43.50
76168;DHT22;64927;48.214;16.378;2023-03-20T09:15:35;18.80;42.80
76168;DHT22;64927;48.214;16.378;2023-03-20T09:18:00;18.70;43.20
76168;DHT22;64927;48.214;16.378;2023-03-20T09:20:26;18.70;43.10
76168;DHT22;64927;48.214;16.378;2023-03-20T09:22:52;18.60;43.40
76168;DHT22;64927;48.214;16.378;2023-03-20T09:25:18;18.60;43.80
76168;DHT22;64927;48.214;16.378;2023-03-20T09:27:43;18.40;43.40
76168;DHT22;64927;48.214;16.378;2023-03-20T09:30:11;18.20;43.70
76168;DHT22;64927;48.214;16.378;2023-03-20T09:32:37;18.00;44.30
76168;DHT22;64927;48.214;16.378;2023-03-20T09:35:04;18.00;44.40
76168;DHT22;64927;48.214;16.378;2023-03-20T09:37:29;18.10;44.40
76168;DHT22;64927;48.214;16.378;2023-03-20T09:39:55;18.00;44.60
76168;DHT22;64927;48.214;16.378;2023-03-20T09:45:13;18.50;44.00
76168;DHT22;64927;48.214;16.378;2023-03-20T09:53:16;18.80;41.90
76168;DHT22;64927;48.214;16.378;2023-03-20T09:55:45;18.90;42.00
76168;DHT22;64927;48.214;16.378;2023-03-20T09:58:19;19.00;41.90
76168;DHT22;64927;48.214;16.378;2023-03-20T10:00:46;19.00;41.50
76168;DHT22;64927;48.214;16.378;2023-03-20T10:03:26;19.10;41.00
76168;DHT22;64927;48.214;16.378;2023-03-20T10:06:03;18.90;41.40
76168;DHT22;64927;48.214;16.378;2023-03-20T10:08:34;18.80;41.60
76168;DHT22;64927;48.214;16.378;2023-03-20T10:16:57;19.10;41.70
76168;DHT22;64927;48.214;16.378;2023-03-20T10:19:56;19.10;40.90
76168;DHT22;64927;48.214;16.378;2023-03-20T10:22:29;18.80;41.40
76168;DHT22;64927;48.214;16.378;2023-03-20T10:25:05;18.90;41.00
76168;DHT22;64927;48.214;16.378;2023-03-20T10:27:43;18.70;41.00
76168;DHT22;64927;48.214;16.378;2023-03-20T10:33:21;19.00;40.70
76168;DHT22;64927;48.214;16.378;2023-03-20T10:39:00;19.20;39.90
76168;DHT22;64927;48.214;16.378;2023-03-20T10:41:27;19.20;40.50
76168;DHT22;64927;48.214;16.378;2023-03-20T10:43:55;19.40;40.50
76168;DHT22;64927;48.214;16.378;2023-03-20T10:46:25;19.20;40.40
76168;DHT22;64927;48.214;16.378;2023-03-20T10:49:13;19.10;40.50
76168;DHT22;64927;48.214;16.378;2023-03-20T10:51:51;19.30;40.20
76168;DHT22;64927;48.214;16.378;2023-03-20T10:54:39;19.30;40.00
76168;DHT22;64927;48.214;16.378;2023-03-20T10:57:13;19.40;40.10
76168;DHT22;64927;48.214;16.378;2023-03-20T10:59:46;19.50;39.90
76168;DHT22;64927;48.214;16.378;2023-03-20T11:02:15;19.70;39.60
76168;DHT22;64927;48.214;16.378;2023-03-20T11:04:41;19.80;39.40
76168;DHT22;64927;48.214;16.378;2023-03-20T11:09:33;19.70;38.90
76168;DHT22;64927;48.214;16.378;2023-03-20T11:12:01;19.70;39.30
76168;DHT22;64927;48.214;16.378;2023-03-20T11:14:33;19.80;39.20
76168;DHT22;64927;48.214;16.378;2023-03-20T11:17:01;19.90;39.30
76168;DHT22;64927;48.214;16.378;2023-03-20T11:19:32;19.90;38.70
76168;DHT22;64927;48.214;16.378;2023-03-20T11:22:23;19.90;38.40
76168;DHT22;64927;48.214;16.378;2023-03-20T11:24:59;20.10;38.20
76168;DHT22;64927;48.214;16.378;2023-03-20T11:27:29;20.00;38.40
76168;DHT22;64927;48.214;16.378;2023-03-20T11:30:00;20.20;38.10
76168;DHT22;64927;48.214;16.378;2023-03-20T11:32:28;20.30;37.90
76168;DHT22;64927;48.214;16.378;2023-03-20T11:34:55;20.40;37.80
76168;DHT22;64927;48.214;16.378;2023-03-20T11:37:26;20.20;37.70
76168;DHT22;64927;48.214;16.378;2023-03-20T11:40:16;20.10;38.00
76168;DHT22;64927;48.214;16.378;2023-03-20T11:43:02;20.40;37.70
76168;DHT22;64927;48.214;16.378;2023-03-20T11:45:36;20.50;37.70
76168;DHT22;64927;48.214;16.378;2023-03-20T11:48:11;20.50;37.70
76168;DHT22;64927;48.214;16.378;2023-03-20T11:58:26;20.60;37.50
76168;DHT22;64927;48.214;16.378;2023-03-20T12:00:57;20.50;37.60
76168;DHT22;64927;48.214;16.378;2023-03-20T12:06:26;20.30;37.80
76168;DHT22;64927;48.214;16.378;2023-03-20T12:09:04;20.30;38.10
76168;DHT22;64927;48.214;16.378;2023-03-20T12:11:49;20.20;37.70
76168;DHT22;64927;48.214;16.378;2023-03-20T12:20:06;19.90;39.40
76168;DHT22;64927;48.214;16.378;2023-03-20T12:22:46;19.80;40.00
76168;DHT22;64927;48.214;16.378;2023-03-20T12:25:26;19.60;40.40
76168;DHT22;64927;48.214;16.378;2023-03-20T12:33:21;19.50;41.10
76168;DHT22;64927;48.214;16.378;2023-03-20T12:35:55;19.60;40.90
76168;DHT22;64927;48.214;16.378;2023-03-20T12:38:32;19.60;40.90
76168;DHT22;64927;48.214;16.378;2023-03-20T13:03:57;20.40;38.70
76168;DHT22;64927;48.214;16.378;2023-03-20T13:06:54;20.50;38.70
76168;DHT22;64927;48.214;16.378;2023-03-20T13:14:47;20.40;39.10
76168;DHT22;64927;48.214;16.378;2023-03-20T13:23:19;20.50;38.80
76168;DHT22;64927;48.214;16.378;2023-03-20T13:42:20;20.30;39.20
76168;DHT22;64927;48.214;16.378;2023-03-20T13:44:46;20.30;39.20
76168;DHT22;64927;48.214;16.378;2023-03-20T13:47:25;20.20;39.50
76168;DHT22;64927;48.214;16.378;2023-03-20T13:52:28;20.00;39.40
76168;DHT22;64927;48.214;16.378;2023-03-20T14:03:37;19.60;40.00
76168;DHT22;64927;48.214;16.378;2023-03-20T14:08:55;19.60;40.40
76168;DHT22;64927;48.214;16.378;2023-03-20T14:13:55;19.60;40.30
76168;DHT22;64927;48.214;16.378;2023-03-20T14:16:22;19.60;40.40
76168;DHT22;64927;48.214;16.378;2023-03-20T14:18:54;19.60;40.30
76168;DHT22;64927;48.214;16.378;2023-03-20T14:21:28;19.50;40.50
76168;DHT22;64927;48.214;16.378;2023-03-20T14:24:02;19.40;40.90
76168;DHT22;64927;48.214;16.378;2023-03-20T14:26:38;19.40;41.00
76168;DHT22;64927;48.214;16.378;2023-03-20T14:31:36;19.50;41.00
76168;DHT22;64927;48.214;16.378;2023-03-20T14:37:01;19.40;41.10
76168;DHT22;64927;48.214;16.378;2023-03-20T14:40:18;19.40;41.10
76168;DHT22;64927;48.214;16.378;2023-03-20T14:43:03;19.30;41.50
76168;DHT22;64927;48.214;16.378;2023-03-20T14:45:41;19.20;41.50
76168;DHT22;64927;48.214;16.378;2023-03-20T14:48:27;19.10;41.70
76168;DHT22;64927;48.214;16.378;2023-03-20T14:56:51;19.00;41.60
76168;DHT22;64927;48.214;16.378;2023-03-20T14:59:21;19.10;41.60
76168;DHT22;64927;48.214;16.378;2023-03-20T15:02:00;19.10;41.70
76168;DHT22;64927;48.214;16.378;2023-03-20T15:04:38;19.20;41.30
76168;DHT22;64927;48.214;16.378;2023-03-20T15:09:45;19.10;41.00
76168;DHT22;64927;48.214;16.378;2023-03-20T15:12:15;19.10;41.20
76168;DHT22;64927;48.214;16.378;2023-03-20T15:17:27;18.90;40.90
76168;DHT22;64927;48.214;16.378;2023-03-20T15:22:50;18.70;41.40
76168;DHT22;64927;48.214;16.378;2023-03-20T15:25:22;18.70;41.80
76168;DHT22;64927;48.214;16.378;2023-03-20T15:27:48;18.60;41.90
76168;DHT22;64927;48.214;16.378;2023-03-20T15:30:18;18.60;41.70
76168;DHT22;64927;48.214;16.378;2023-03-20T15:32:46;18.60;41.40
76168;DHT22;64927;48.214;16.378;2023-03-20T15:35:16;18.60;41.40
76168;DHT22;64927;48.214;16.378;2023-03-20T15:37:45;18.60;41.20
76168;DHT22;64927;48.214;16.378;2023-03-20T15:42:57;18.40;41.10
76168;DHT22;64927;48.214;16.378;2023-03-20T15:45:44;18.40;41.20
76168;DHT22;64927;48.214;16.378;2023-03-20T15:48:15;18.40;41.10
76168;DHT22;64927;48.214;16.378;2023-03-20T15:50:48;18.40;41.30
76168;DHT22;64927;48.214;16.378;2023-03-20T15:53:17;18.30;41.50
76168;DHT22;64927;48.214;16.378;2023-03-20T15:55:52;18.20;41.50
76168;DHT22;64927;48.214;16.378;2023-03-20T15:58:19;18.20;41.70
76168;DHT22;64927;48.214;16.378;2023-03-20T16:00:47;18.10;42.10
76168;DHT22;64927;48.214;16.378;2023-03-20T16:03:16;18.00;42.10
76168;DHT22;64927;48.214;16.378;2023-03-20T16:05:48;18.00;42.10
76168;DHT22;64927;48.214;16.378;2023-03-20T16:08:30;18.00;42.20
76168;DHT22;64927;48.214;16.378;2023-03-20T16:11:04;17.80;42.60
76168;DHT22;64927;48.214;16.378;2023-03-20T16:13:38;17.70;42.90
76168;DHT22;64927;48.214;16.378;2023-03-20T16:16:07;17.70;44.20
76168;DHT22;64927;48.214;16.378;2023-03-20T16:18:37;17.60;43.90
76168;DHT22;64927;48.214;16.378;2023-03-20T16:21:25;17.60;43.70
76168;DHT22;64927;48.214;16.378;2023-03-20T16:23:54;17.50;44.10
76168;DHT22;64927;48.214;16.378;2023-03-20T16:26:24;17.40;44.60
76168;DHT22;64927;48.214;16.378;2023-03-20T16:28:57;17.40;44.70
76168;DHT22;64927;48.214;16.378;2023-03-20T16:31:34;17.40;44.80
76168;DHT22;64927;48.214;16.378;2023-03-20T16:34:07;17.30;45.20
76168;DHT22;64927;48.214;16.378;2023-03-20T16:36:37;17.20;45.60
76168;DHT22;64927;48.214;16.378;2023-03-20T16:39:16;17.20;45.80
76168;DHT22;64927;48.214;16.378;2023-03-20T16:41:43;17.10;46.40
76168;DHT22;64927;48.214;16.378;2023-03-20T16:44:21;16.90;47.00
76168;DHT22;64927;48.214;16.378;2023-03-20T16:46:59;16.90;47.30
76168;DHT22;64927;48.214;16.378;2023-03-20T16:51:57;16.80;47.80
76168;DHT22;64927;48.214;16.378;2023-03-20T16:54:26;16.70;48.20
76168;DHT22;64927;48.214;16.378;2023-03-20T16:56:56;16.60;48.60
76168;DHT22;64927;48.214;16.378;2023-03-20T16:59:23;16.60;48.50
76168;DHT22;64927;48.214;16.378;2023-03-20T17:01:50;16.60;48.60
76168;DHT22;64927;48.214;16.378;2023-03-20T17:04:28;16.60;48.90
76168;DHT22;64927;48.214;16.378;2023-03-20T17:07:10;16.60;49.00
76168;DHT22;64927;48.214;16.378;2023-03-20T17:09:53;16.50;49.40
76168;DHT22;64927;48.214;16.378;2023-03-20T17:12:23;16.50;49.70
76168;DHT22;64927;48.214;16.378;2023-03-20T17:14:50;16.40;49.90
76168;DHT22;64927;48.214;16.378;2023-03-20T17:17:19;16.30;50.20
76168;DHT22;64927;48.214;16.378;2023-03-20T17:19:48;16.30;50.30
76168;DHT22;64927;48.214;16.378;2023-03-20T17:22:17;16.30;50.50
76168;DHT22;64927;48.214;16.378;2023-03-20T17:24:44;16.20;50.70
76168;DHT22;64927;48.214;16.378;2023-03-20T17:27:14;16.20;50.80
76168;DHT22;64927;48.214;16.378;2023-03-20T17:29:43;16.30;50.80
76168;DHT22;64927;48.214;16.378;2023-03-20T17:32:11;16.30;50.70
76168;DHT22;64927;48.214;16.378;2023-03-20T17:34:38;16.40;50.50
76168;DHT22;64927;48.214;16.378;2023-03-20T17:37:05;16.40;50.30
76168;DHT22;64927;48.214;16.378;2023-03-20T17:39:32;16.50;50.20
76168;DHT22;64927;48.214;16.378;2023-03-20T17:41:58;16.40;50.30
76168;DHT22;64927;48.214;16.378;2023-03-20T17:44:23;16.40;50.50
76168;DHT22;64927;48.214;16.378;2023-03-20T17:46:50;16.40;50.80
76168;DHT22;64927;48.214;16.378;2023-03-20T17:49:16;16.40;50.80
76168;DHT22;64927;48.214;16.378;2023-03-20T17:51:44;16.40;50.90
76168;DHT22;64927;48.214;16.378;2023-03-20T17:54:11;16.40;50.80
76168;DHT22;64927;48.214;16.378;2023-03-20T17:56:37;16.50;50.80
76168;DHT22;64927;48.214;16.378;2023-03-20T17:59:04;16.50;50.90
76168;DHT22;64927;48.214;16.378;2023-03-20T18:01:35;16.40;51.10
76168;DHT22;64927;48.214;16.378;2023-03-20T18:04:03;16.30;51.40
76168;DHT22;64927;48.214;16.378;2023-03-20T18:06:32;16.30;51.30
76168;DHT22;64927;48.214;16.378;2023-03-20T18:08:59;16.30;51.50
76168;DHT22;64927;48.214;16.378;2023-03-20T18:11:28;16.30;51.60
76168;DHT22;64927;48.214;16.378;2023-03-20T18:13:57;16.30;51.70
76168;DHT22;64927;48.214;16.378;2023-03-20T18:16:26;16.20;52.10
76168;DHT22;64927;48.214;16.378;2023-03-20T18:18:53;16.10;52.20
76168;DHT22;64927;48.214;16.378;2023-03-20T18:21:19;16.10;52.40
76168;DHT22;64927;48.214;16.378;2023-03-20T18:23:46;16.10;52.30
76168;DHT22;64927;48.214;16.378;2023-03-20T18:28:41;16.00;52.40
76168;DHT22;64927;48.214;16.378;2023-03-20T18:31:07;16.00;52.50
76168;DHT22;64927;48.214;16.378;2023-03-20T18:33:33;15.90;52.60
76168;DHT22;64927;48.214;16.378;2023-03-20T18:35:59;16.00;52.50
76168;DHT22;64927;48.214;16.378;2023-03-20T18:38:27;15.90;52.40
76168;DHT22;64927;48.214;16.378;2023-03-20T18:40:55;15.90;52.50
76168;DHT22;64927;48.214;16.378;2023-03-20T18:43:24;15.80;52.70
76168;DHT22;64927;48.214;16.378;2023-03-20T18:45:50;15.80;52.80
76168;DHT22;64927;48.214;16.378;2023-03-20T18:48:16;15.80;52.80
76168;DHT22;64927;48.214;16.378;2023-03-20T18:50:42;15.80;53.00